• pl
  • eng

Awiacja
Kliknij na pogrubioną czerwoną nazwę, aby odkodować depeszę. 04:01 20.08.2018
  • WIND
  • SIGNIFICANT EURO
  • SIGNIFICANT
  • SIGMET
  • AIRMET
  • TAF FC
  • TAF FT
  • METAR GG30
  • METAR GG00


METAR EPBY 200200Z 19003KT 160V220 CAVOK 16/11 Q1015 =

METAR EPGD 200200Z VRB02KT CAVOK 15/14 Q1014 =

METAR EPKK 200200Z 07002KT CAVOK 16/15 Q1018 =

METAR EPKT 200200Z VRB02KT 8000 NSC 16/15 Q1017 =

METAR EPLB 200200Z 13002KT CAVOK 17/16 Q1017 =

METAR EPLL 200200Z 08001KT CAVOK 16/14 Q1016 =

METAR EPMO 200200Z 19003KT 6000 NSC 17/16 Q1016 =

METAR EPPO 200200Z VRB01KT CAVOK 16/11 Q1015 =

METAR EPRA 200200Z NIL=

METAR EPRZ 200200Z VRB01KT CAVOK 16/16 Q1018 =

METAR EPSC 200200Z VRB02KT CAVOK 17/12 Q1014 =

METAR EPSY 200200Z NIL=

METAR EPWA 200200Z 00000KT 9999 MIFG NSC 17/16 Q1016 NOSIG=

METAR EPWR 200200Z 07002KT CAVOK 19/15 Q1016 =

METAR EPZG 200200Z 23001KT CAVOK 15/13 Q1015 =
 METAR EPWR
Lokalizacja:EPWR Wrocław Strachowice
Czas:02:00 UTC
Średni kierunek wiatru:70 °
Średnia prędkość wiatru:2 węzłów
CAVOK:Widzialność 10 km i więcej, zjawisko: NIL, zachmurzenie: NSC
Temperatura powietrza:19 °C
Temperatura punktu rosy:15 °C
Ciśnienie QNH:1016 hPa
Awiacja.imgw.pl jest pogodowym serwisem informacyjnym
Instytutu Meteorologii i Gospodarki Wodnej Państwowego Instytutu Badawczego.
Copyright IMGW PIB 2009-2011© Wszelkie prawa zastrzeżone.